Time;durP1;ratioP1;P1;durP2;ratioP2;P2;SDS_P1;SDS_P2;PMS_P1;PMS_P2;Temp;Humidity;BMP_temperature;BMP_pressure;BME280_temperature;BME280_humidity;BME280_pressure;Samples;Min_cycle;Max_cycle;Signal;HPM_P1;HPM_P2
2023/01/31 06:54:49;;;;;;;15.68;7.85;;;;;;;;;;10588655;27;20413;-85
2023/01/31 06:59:50;;;;;;;9.27;3.35;;;;;;;;;;10586020;28;20095;-84
2023/01/31 07:04:52;;;;;;;9.43;3.28;;;;;;;;;;10583146;28;20062;-82
2023/01/31 07:09:53;;;;;;;11.43;5.15;;;;;;;;;;10586100;28;20027;-85
2023/01/31 07:14:54;;;;;;;14.90;5.50;;;;;;;;;;10592347;28;20020;-85
2023/01/31 07:19:55;;;;;;;12.90;5.43;;;;;;;;;;10585432;28;20024;-82
2023/01/31 07:24:56;;;;;;;14.40;5.90;;;;;;;;;;10584124;28;20019;-83
2023/01/31 07:29:57;;;;;;;14.07;5.13;;;;;;;;;;10586716;28;20123;-85
2023/01/31 07:34:58;;;;;;;11.50;4.70;;;;;;;;;;10587303;28;20047;-82
2023/01/31 07:39:59;;;;;;;18.05;5.47;;;;;;;;;;10581434;28;20059;-82
2023/01/31 07:45:00;;;;;;;11.38;5.30;;;;;;;;;;10579396;28;20044;-82
2023/01/31 07:50:01;;;;;;;18.17;5.80;;;;;;;;;;10581915;28;20394;-81
2023/01/31 07:55:02;;;;;;;11.50;4.82;;;;;;;;;;10583128;28;20051;-85
2023/01/31 08:03:31;;;;;;;15.50;5.32;;;;;;;;;;10589185;28;20151;-85
2023/01/31 08:05:24;;;;;;;13.60;6.15;;;;;;;;;;10561743;28;20093;-81
2023/01/31 08:10:25;;;;;;;14.95;5.60;;;;;;;;;;10557768;28;20049;-82
2023/01/31 08:15:43;;;;;;;8.50;3.17;;;;;;;;;;10590068;27;20352;-83
2023/01/31 08:20:44;;;;;;;14.18;4.72;;;;;;;;;;10591137;28;20062;-82
2023/01/31 08:25:45;;;;;;;15.63;7.38;;;;;;;;;;10600779;28;20087;-82
2023/01/31 08:30:46;;;;;;;13.95;5.07;;;;;;;;;;10582575;28;20076;-83
2023/01/31 08:35:47;;;;;;;;;;;;;;;;;;10579317;28;20198;-82
2023/01/31 08:40:49;;;;;;;11.48;4.22;;;;;;;;;;10578745;28;19904;-82
2023/01/31 08:45:50;;;;;;;10.75;4.55;;;;;;;;;;10582945;28;20012;-81
2023/01/31 08:50:51;;;;;;;11.25;4.70;;;;;;;;;;10586720;28;20067;-81
2023/01/31 08:55:52;;;;;;;13.27;5.00;;;;;;;;;;10580577;28;20028;-83
2023/01/31 09:00:53;;;;;;;11.80;4.25;;;;;;;;;;10580138;28;20149;-82
2023/01/31 09:05:54;;;;;;;14.18;5.13;;;;;;;;;;10582147;28;20433;-80
2023/01/31 09:10:55;;;;;;;8.85;3.65;;;;;;;;;;10584314;28;20076;-81
2023/01/31 09:15:56;;;;;;;;;;;;;;;;;;10584991;28;20032;-82
2023/01/31 09:21:02;;;;;;;9.25;3.95;;;;;;;;;;10578671;28;20338;-83
2023/01/31 09:26:03;;;;;;;13.65;5.07;;;;;;;;;;10570629;28;20095;-81
2023/01/31 09:31:04;;;;;;;;;;;;;;;;;;10582284;28;20028;-82
2023/01/31 09:36:13;;;;;;;10.05;4.53;;;;;;;;;;10565545;28;20006;-81
2023/01/31 09:41:34;;;;;;;7.40;3.53;;;;;;;;;;10586533;28;20515;-81
2023/01/31 09:46:37;;;;;;;12.23;4.43;;;;;;;;;;10562654;28;20036;-82
2023/01/31 09:51:39;;;;;;;11.23;4.10;;;;;;;;;;10560459;28;20028;-80
2023/01/31 09:56:48;;;;;;;8.65;4.10;;;;;;;;;;10560221;28;20020;-82
2023/01/31 10:01:55;;;;;;;10.95;4.93;;;;;;;;;;10558098;28;20095;-85
2023/01/31 10:06:56;;;;;;;9.82;4.03;;;;;;;;;;10560984;28;20057;-80
2023/01/31 10:12:15;;;;;;;7.88;3.95;;;;;;;;;;10547417;28;20028;-81
2023/01/31 10:17:22;;;;;;;13.32;4.90;;;;;;;;;;10548342;28;20031;-81
2023/01/31 10:22:31;;;;;;;9.23;4.00;;;;;;;;;;10550561;28;20024;-83
2023/01/31 10:27:48;;;;;;;9.27;3.90;;;;;;;;;;10549820;28;20035;-81
2023/01/31 10:32:56;;;;;;;7.90;3.78;;;;;;;;;;10549834;28;20035;-81
2023/01/31 10:38:11;;;;;;;12.35;6.82;;;;;;;;;;10548242;28;20020;-81
2023/01/31 10:43:18;;;;;;;7.97;3.40;;;;;;;;;;10548868;28;20334;-82
2023/01/31 10:48:25;;;;;;;13.68;5.32;;;;;;;;;;10549834;28;20031;-81
2023/01/31 10:53:37;;;;;;;7.40;3.88;;;;;;;;;;10549596;28;20051;-81
2023/01/31 10:58:38;;;;;;;10.90;4.15;;;;;;;;;;10547311;28;20119;-81
2023/01/31 11:03:40;;;;;;;8.90;4.53;;;;;;;;;;10573614;28;20036;-79
2023/01/31 11:08:47;;;;;;;11.73;4.07;;;;;;;;;;10559102;28;20050;-81
2023/01/31 11:13:58;;;;;;;9.18;4.10;;;;;;;;;;10552261;28;20035;-81
2023/01/31 11:19:00;;;;;;;10.27;3.92;;;;;;;;;;10558009;28;20030;-81
2023/01/31 11:24:04;;;;;;;10.52;3.95;;;;;;;;;;10560258;28;20091;-82
2023/01/31 11:29:16;;;;;;;8.25;3.13;;;;;;;;;;10557099;28;20452;-81
2023/01/31 11:34:19;;;;;;;9.20;3.80;;;;;;;;;;10555549;28;20115;-80
2023/01/31 11:39:27;;;;;;;12.82;4.55;;;;;;;;;;10554488;28;20051;-80
2023/01/31 11:44:28;;;;;;;12.23;4.95;;;;;;;;;;10554363;28;20024;-81
2023/01/31 11:49:32;;;;;;;9.63;3.70;;;;;;;;;;10557639;28;20024;-81
2023/01/31 11:54:34;;;;;;;10.30;4.10;;;;;;;;;;10558828;28;20100;-80
2023/01/31 11:59:35;;;;;;;10.27;4.28;;;;;;;;;;10556686;28;20021;-79
2023/01/31 12:04:41;;;;;;;12.43;5.60;;;;;;;;;;10557623;28;20469;-80
2023/01/31 12:09:43;;;;;;;8.65;4.88;;;;;;;;;;10562666;28;20032;-79
2023/01/31 12:14:47;;;;;;;11.65;5.88;;;;;;;;;;10562765;28;20091;-78
2023/01/31 12:19:51;;;;;;;8.20;4.53;;;;;;;;;;10550808;28;20027;-81
2023/01/31 12:25:13;;;;;;;8.45;3.08;;;;;;;;;;10548765;28;20022;-81
2023/01/31 12:30:17;;;;;;;9.80;4.60;;;;;;;;;;10551357;28;20043;-81
2023/01/31 12:35:29;;;;;;;12.05;5.75;;;;;;;;;;10549739;28;20123;-80
2023/01/31 12:40:30;;;;;;;7.97;3.88;;;;;;;;;;10553478;28;20032;-79
2023/01/31 12:45:52;;;;;;;10.65;4.75;;;;;;;;;;10452779;22;20037;-80
2023/01/31 12:50:56;;;;;;;8.52;3.72;;;;;;;;;;10429104;28;20033;-82
2023/01/31 12:56:00;;;;;;;10.55;5.05;;;;;;;;;;10433307;28;20053;-79
2023/01/31 13:01:07;;;;;;;9.48;4.97;;;;;;;;;;10441525;28;20120;-80
2023/01/31 13:06:14;;;;;;;8.82;4.63;;;;;;;;;;10443271;28;20044;-79
2023/01/31 13:11:18;;;;;;;8.93;4.70;;;;;;;;;;10434976;28;20091;-81
2023/01/31 13:16:20;;;;;;;14.15;6.15;;;;;;;;;;10436895;28;20344;-81
2023/01/31 13:21:26;;;;;;;9.68;4.47;;;;;;;;;;10432417;28;20120;-81
2023/01/31 13:26:32;;;;;;;12.35;5.55;;;;;;;;;;10432174;28;20029;-80
2023/01/31 13:31:36;;;;;;;9.50;4.68;;;;;;;;;;10429561;28;20029;-78
2023/01/31 13:36:49;;;;;;;10.93;5.75;;;;;;;;;;10430096;28;20025;-79
2023/01/31 13:41:50;;;;;;;13.48;6.10;;;;;;;;;;10432045;28;20041;-80
2023/01/31 13:47:15;;;;;;;11.85;7.45;;;;;;;;;;10428418;28;20029;-81
2023/01/31 13:52:23;;;;;;;10.25;4.82;;;;;;;;;;10396336;28;20040;-81
2023/01/31 13:57:28;;;;;;;8.63;5.45;;;;;;;;;;10427720;28;20440;-80
2023/01/31 14:02:29;;;;;;;8.98;4.93;;;;;;;;;;10429272;28;20032;-78
2023/01/31 14:07:30;;;;;;;9.40;5.35;;;;;;;;;;10426698;28;20109;-80
2023/01/31 14:12:32;;;;;;;7.60;4.53;;;;;;;;;;10428995;28;20025;-80
2023/01/31 14:17:33;;;;;;;9.18;5.78;;;;;;;;;;10426975;28;20017;-79
2023/01/31 14:22:40;;;;;;;9.40;6.18;;;;;;;;;;10425085;28;20105;-79
2023/01/31 14:27:50;;;;;;;8.50;6.18;;;;;;;;;;10426108;28;20033;-79
2023/01/31 14:32:57;;;;;;;9.97;6.23;;;;;;;;;;10425112;28;20087;-79
2023/01/31 14:38:17;;;;;;;10.40;7.70;;;;;;;;;;10427322;28;20315;-80
2023/01/31 14:43:27;;;;;;;10.63;6.88;;;;;;;;;;10425181;28;20053;-79
2023/01/31 14:48:48;;;;;;;10.52;7.75;;;;;;;;;;10425533;28;20083;-80
2023/01/31 14:53:49;;;;;;;;;;;;;;;;;;10441905;28;20013;-79
2023/01/31 14:58:53;;;;;;;7.75;5.53;;;;;;;;;;10457850;28;19968;-79
2023/01/31 15:03:57;;;;;;;8.35;5.72;;;;;;;;;;10432000;28;20081;-79
2023/01/31 15:09:17;;;;;;;7.25;4.40;;;;;;;;;;10428804;28;20052;-81
2023/01/31 15:14:22;;;;;;;11.32;9.57;;;;;;;;;;10426857;28;20025;-80
2023/01/31 15:19:24;;;;;;;8.48;6.82;;;;;;;;;;10427714;28;20014;-80
2023/01/31 15:24:29;;;;;;;9.45;7.47;;;;;;;;;;10426279;28;20030;-79
2023/01/31 15:29:36;;;;;;;9.75;6.63;;;;;;;;;;10426062;28;20121;-80
2023/01/31 15:34:41;;;;;;;6.43;5.72;;;;;;;;;;10425710;28;20124;-82
2023/01/31 15:40:03;;;;;;;8.77;7.15;;;;;;;;;;10426385;28;20468;-81
2023/01/31 15:45:19;;;;;;;8.65;5.97;;;;;;;;;;10425067;28;20142;-81
2023/01/31 15:50:20;;;;;;;11.18;6.10;;;;;;;;;;10424963;28;20025;-82
2023/01/31 15:55:21;;;;;;;;;;;;;;;;;;10427939;28;20033;-80
2023/01/31 16:00:25;;;;;;;7.13;4.93;;;;;;;;;;10422480;28;19909;-81
2023/01/31 16:05:33;;;;;;;7.55;3.80;;;;;;;;;;10422071;28;20021;-80
2023/01/31 16:10:35;;;;;;;6.68;3.55;;;;;;;;;;10426861;28;20052;-80
2023/01/31 16:15:37;;;;;;;6.68;4.10;;;;;;;;;;10444444;28;20026;-79
2023/01/31 16:20:45;;;;;;;6.57;3.90;;;;;;;;;;10446184;28;20487;-79
2023/01/31 16:25:50;;;;;;;7.72;5.07;;;;;;;;;;10437731;28;20080;-79
2023/01/31 16:30:51;;;;;;;6.50;3.30;;;;;;;;;;10436824;28;20093;-80
2023/01/31 16:36:01;;;;;;;6.35;3.33;;;;;;;;;;10440963;28;20075;-80
2023/01/31 16:41:06;;;;;;;5.30;3.33;;;;;;;;;;10448132;28;20096;-80
2023/01/31 16:46:19;;;;;;;6.75;4.38;;;;;;;;;;10445974;28;20025;-79
2023/01/31 16:51:26;;;;;;;6.90;4.13;;;;;;;;;;10432823;28;20468;-78
2023/01/31 16:56:28;;;;;;;6.15;3.85;;;;;;;;;;10435341;28;20095;-81
2023/01/31 17:01:30;;;;;;;8.60;4.82;;;;;;;;;;10433371;28;20037;-79
2023/01/31 17:06:32;;;;;;;8.88;3.70;;;;;;;;;;10431868;28;20030;-80
2023/01/31 17:11:33;;;;;;;5.47;3.08;;;;;;;;;;10432188;28;20033;-80
2023/01/31 17:17:05;;;;;;;9.13;2.92;;;;;;;;;;10432972;28;20395;-80
2023/01/31 17:33:14;;;;;;;6.88;3.72;;;;;;;;;;10441097;28;20484;-83
2023/01/31 17:38:15;;;;;;;10.73;4.10;;;;;;;;;;10428853;28;20033;-83
2023/01/31 17:43:24;;;;;;;6.47;3.58;;;;;;;;;;10443059;28;20475;-85
2023/01/31 17:48:31;;;;;;;7.20;2.72;;;;;;;;;;10440806;28;20025;-85
2023/01/31 17:53:34;;;;;;;5.75;3.20;;;;;;;;;;10419261;28;20038;-84
2023/01/31 17:58:35;;;;;;;7.88;3.08;;;;;;;;;;10436962;28;20030;-84
2023/01/31 18:03:36;;;;;;;5.80;3.35;;;;;;;;;;10434163;28;20025;-82
2023/01/31 18:08:39;;;;;;;9.90;4.43;;;;;;;;;;10437191;28;20037;-83
2023/01/31 18:13:40;;;;;;;7.18;2.88;;;;;;;;;;10438258;28;20032;-84
2023/01/31 18:18:45;;;;;;;10.55;3.33;;;;;;;;;;10435569;28;20026;-84
2023/01/31 18:23:50;;;;;;;6.47;2.63;;;;;;;;;;10438622;28;20029;-84
2023/01/31 18:28:53;;;;;;;8.82;3.28;;;;;;;;;;10437205;28;20040;-84
2023/01/31 18:33:54;;;;;;;6.70;2.90;;;;;;;;;;10431383;28;20029;-84
2023/01/31 18:38:55;;;;;;;11.77;3.30;;;;;;;;;;10429795;28;20033;-84
2023/01/31 18:43:56;;;;;;;8.63;3.40;;;;;;;;;;10467026;22;20067;-87
2023/01/31 18:48:57;;;;;;;9.23;2.75;;;;;;;;;;10467956;28;20124;-87
2023/01/31 18:53:58;;;;;;;7.25;2.78;;;;;;;;;;10468926;28;20044;-86
2023/01/31 18:58:59;;;;;;;6.65;2.28;;;;;;;;;;10469716;28;20045;-86
2023/01/31 19:04:01;;;;;;;7.43;2.50;;;;;;;;;;10467072;28;20111;-86
2023/01/31 19:09:03;;;;;;;6.50;2.65;;;;;;;;;;10465700;28;20031;-86
2023/01/31 19:14:05;;;;;;;9.00;2.60;;;;;;;;;;10465607;28;20097;-86
2023/01/31 19:19:07;;;;;;;5.18;1.80;;;;;;;;;;10467237;28;20033;-86
2023/01/31 19:24:13;;;;;;;6.32;2.30;;;;;;;;;;10465062;28;20044;-85
2023/01/31 19:29:15;;;;;;;8.32;2.67;;;;;;;;;;10467249;28;20032;-87
2023/01/31 19:34:16;;;;;;;4.95;2.00;;;;;;;;;;10465847;28;20035;-86
2023/01/31 19:39:17;;;;;;;7.30;2.75;;;;;;;;;;10464050;28;20097;-86
2023/01/31 19:44:19;;;;;;;6.55;2.58;;;;;;;;;;10465918;28;20124;-86
2023/01/31 19:49:21;;;;;;;8.40;2.97;;;;;;;;;;10467494;28;20056;-86
2023/01/31 19:54:22;;;;;;;5.32;2.42;;;;;;;;;;10465457;28;20021;-86
2023/01/31 19:59:23;;;;;;;6.82;2.72;;;;;;;;;;10468590;28;20025;-86
2023/01/31 20:04:24;;;;;;;;;;;;;;;;;;10468535;28;20029;-86
2023/01/31 20:09:25;;;;;;;9.18;2.75;;;;;;;;;;10466594;28;19905;-85
2023/01/31 20:14:28;;;;;;;6.75;2.50;;;;;;;;;;10467030;28;20029;-86
2023/01/31 20:19:29;;;;;;;5.97;2.08;;;;;;;;;;10468319;28;20028;-86
